Time;durP1;ratioP1;P1;durP2;ratioP2;P2;SDS_P1;SDS_P2;PMS_P1;PMS_P2;Temp;Humidity;BMP_temperature;BMP_pressure;BME280_temperature;BME280_humidity;BME280_pressure;Samples;Min_cycle;Max_cycle;Signal;HPM_P1;HPM_P2
2021/05/31 00:00:00;;;;;;;6.75;3.10;;;;;;;7.96;68.20;101810.22;5036774;28;20509;-70
2021/05/31 00:02:27;;;;;;;7.65;3.60;;;;;;;7.95;68.66;101798.88;5032595;28;20076;-70
2021/05/31 00:04:55;;;;;;;6.25;3.25;;;;;;;7.96;68.53;101803.22;5050456;28;20048;-70
2021/05/31 00:07:22;;;;;;;5.97;3.30;;;;;;;7.92;68.97;101798.09;5046475;28;20079;-70
2021/05/31 00:09:51;;;;;;;7.20;3.80;;;;;;;7.99;68.53;101797.03;5034071;28;20048;-70
2021/05/31 00:12:19;;;;;;;7.05;3.92;;;;;;;7.75;70.04;101803.84;5047570;28;20060;-69
2021/05/31 00:14:46;;;;;;;7.57;4.30;;;;;;;7.77;70.40;101805.53;5032935;28;20139;-68
2021/05/31 00:21:01;;;;;;;7.90;4.88;;;;;;;7.77;70.56;101799.41;5046785;28;20411;-69
2021/05/31 00:23:28;;;;;;;10.93;3.75;;;;;;;7.63;70.82;101797.19;5050041;28;20078;-69
2021/05/31 00:25:55;;;;;;;8.00;4.15;;;;;;;7.67;71.43;101790.97;5054316;28;20247;-70
2021/05/31 00:28:23;;;;;;;6.28;3.75;;;;;;;7.54;71.39;101798.31;5055466;28;20049;-69
2021/05/31 00:30:50;;;;;;;11.85;4.18;;;;;;;7.43;72.68;101787.28;5050076;28;20132;-69
2021/05/31 00:33:17;;;;;;;8.23;3.75;;;;;;;7.42;72.56;101788.16;5051071;28;20053;-71
2021/05/31 00:35:44;;;;;;;7.55;3.92;;;;;;;7.51;72.26;101789.66;5045283;28;20071;-70
2021/05/31 00:38:12;;;;;;;7.47;4.05;;;;;;;7.64;72.30;101788.41;5048538;28;20453;-70
2021/05/31 00:40:39;;;;;;;6.03;3.22;;;;;;;7.65;71.62;101797.13;5049993;28;20053;-71
2021/05/31 00:55:39;;;;;;;7.50;4.13;;;;;;;7.25;74.03;101788.63;5045458;28;20048;-69
2021/05/31 00:58:06;;;;;;;10.25;4.28;;;;;;;7.20;74.59;101779.16;5056490;28;20129;-69
2021/05/31 01:00:33;;;;;;;6.75;3.72;;;;;;;7.18;74.85;101781.81;5031770;28;20231;-69
2021/05/31 01:03:00;;;;;;;10.52;4.28;;;;;;;7.09;75.24;101782.91;5052627;28;20080;-68
2021/05/31 01:05:27;;;;;;;7.03;4.10;;;;;;;7.06;75.55;101782.97;5025475;28;20053;-69
2021/05/31 01:08:01;;;;;;;9.18;3.95;;;;;;;7.06;76.10;101782.13;5046798;28;20156;-69
2021/05/31 01:10:44;;;;;;;9.00;3.97;;;;;;;7.06;75.97;101776.88;5028127;28;20053;-70
2021/05/31 01:13:49;;;;;;;6.72;3.95;;;;;;;7.02;75.89;101770.00;5020596;28;20053;-70
2021/05/31 01:16:36;;;;;;;5.63;3.08;;;;;;;7.02;76.06;101777.88;5023785;28;20531;-69
2021/05/31 01:19:09;;;;;;;7.60;3.65;;;;;;;6.91;77.03;101778.16;5009959;28;20476;-70
2021/05/31 01:22:08;;;;;;;11.57;4.13;;;;;;;7.00;76.51;101770.06;5014742;28;20073;-69
2021/05/31 01:24:47;;;;;;;10.80;4.15;;;;;;;6.80;77.71;101777.56;5033535;28;20053;-69
2021/05/31 01:27:20;;;;;;;7.35;4.13;;;;;;;6.76;77.77;101771.53;5072322;28;20063;-67
2021/05/31 01:29:53;;;;;;;9.48;4.38;;;;;;;6.74;77.62;101773.31;5072024;28;20063;-69
2021/05/31 01:32:31;;;;;;;13.20;4.10;;;;;;;6.81;78.02;101772.28;5033314;28;20052;-69
2021/05/31 01:35:01;;;;;;;9.18;4.30;;;;;;;6.66;78.93;101775.25;5032514;28;20063;-70
2021/05/31 01:37:28;;;;;;;6.30;4.07;;;;;;;6.72;78.66;101776.91;5028723;28;20055;-70
2021/05/31 01:40:01;;;;;;;11.45;4.18;;;;;;;6.65;78.73;101777.94;5049488;28;20099;-71
2021/05/31 01:42:28;;;;;;;10.82;4.80;;;;;;;6.55;79.01;101772.06;5027931;28;20574;-69
2021/05/31 01:44:56;;;;;;;7.78;4.55;;;;;;;6.55;79.57;101767.69;5036339;28;20131;-70
2021/05/31 01:47:23;;;;;;;7.43;4.15;;;;;;;6.50;79.96;101776.53;5034938;28;20056;-70
2021/05/31 01:49:51;;;;;;;9.25;4.88;;;;;;;6.48;80.42;101770.47;5047348;28;20526;-70
2021/05/31 01:52:18;;;;;;;9.18;4.90;;;;;;;6.44;80.22;101772.31;5015867;28;20053;-70
2021/05/31 01:54:45;;;;;;;9.95;5.13;;;;;;;6.44;80.15;101771.44;5017081;28;20049;-69
2021/05/31 01:57:12;;;;;;;10.60;5.45;;;;;;;6.34;80.74;101768.19;5050740;28;20052;-69
2021/05/31 01:59:40;;;;;;;9.18;4.68;;;;;;;6.24;81.34;101764.91;5041879;28;20061;-69
2021/05/31 02:02:07;;;;;;;9.60;5.40;;;;;;;6.29;81.04;101768.28;5033832;28;20049;-70
2021/05/31 02:04:35;;;;;;;7.25;4.90;;;;;;;6.30;81.31;101756.06;5051621;28;20057;-70
2021/05/31 02:07:02;;;;;;;10.35;5.18;;;;;;;6.35;81.21;101759.47;5056849;28;20109;-70
2021/05/31 02:09:29;;;;;;;9.52;3.95;;;;;;;6.47;80.65;101751.31;5060378;28;20049;-69
2021/05/31 02:12:09;;;;;;;11.57;4.38;;;;;;;6.36;81.11;101750.72;5050690;28;20052;-69
2021/05/31 02:15:08;;;;;;;7.65;4.20;;;;;;;6.42;81.03;101747.09;5031374;28;20064;-70
2021/05/31 02:17:44;;;;;;;13.70;4.40;;;;;;;6.22;82.33;101745.81;5030191;28;20517;-69
2021/05/31 02:20:15;;;;;;;8.05;4.35;;;;;;;6.08;82.73;101740.91;5014607;28;20106;-69
2021/05/31 02:22:45;;;;;;;8.15;4.70;;;;;;;6.08;83.49;101745.25;5048149;28;20060;-69
2021/05/31 02:25:14;;;;;;;7.47;4.15;;;;;;;6.17;83.18;101738.94;5044731;28;20156;-70
2021/05/31 02:27:42;;;;;;;8.48;4.65;;;;;;;6.13;82.94;101740.78;5039373;28;20053;-72
2021/05/31 02:30:13;;;;;;;11.90;5.00;;;;;;;6.26;82.80;101738.72;5018555;28;20505;-69
2021/05/31 02:32:55;;;;;;;8.18;4.22;;;;;;;6.21;83.20;101735.38;5033061;28;20067;-69
2021/05/31 02:35:23;;;;;;;7.57;4.85;;;;;;;6.17;83.38;101729.38;5055132;28;20467;-68
2021/05/31 02:37:50;;;;;;;10.35;4.57;;;;;;;6.15;83.30;101725.91;5035612;28;20057;-68
2021/05/31 02:40:19;;;;;;;9.15;4.82;;;;;;;6.09;84.13;101728.69;5043704;28;20076;-70
2021/05/31 02:42:54;;;;;;;8.73;5.07;;;;;;;6.18;83.74;101725.84;5045121;28;20570;-68
2021/05/31 02:45:23;;;;;;;11.38;5.05;;;;;;;6.12;84.37;101727.72;5057827;28;20083;-69
2021/05/31 02:47:51;;;;;;;10.82;5.72;;;;;;;6.05;84.85;101735.72;5034373;28;20049;-68
2021/05/31 02:50:20;;;;;;;11.60;5.28;;;;;;;6.18;84.12;101733.69;5031785;28;20056;-69
2021/05/31 02:52:47;;;;;;;7.85;4.28;;;;;;;6.12;84.24;101740.81;5050939;28;20848;-69
2021/05/31 02:55:17;;;;;;;10.00;4.22;;;;;;;6.07;84.46;101741.75;5051600;28;20540;-70
2021/05/31 02:57:45;;;;;;;12.05;5.10;;;;;;;6.06;84.67;101744.41;5051250;28;20055;-69
2021/05/31 03:00:15;;;;;;;8.38;4.40;;;;;;;6.17;84.74;101744.16;5032449;28;20056;-69
2021/05/31 03:02:42;;;;;;;10.25;4.50;;;;;;;6.09;85.11;101742.59;5037322;28;20193;-69
2021/05/31 03:05:12;;;;;;;11.38;4.90;;;;;;;5.98;85.35;101741.09;5014028;28;20147;-69
2021/05/31 03:07:39;;;;;;;10.63;5.15;;;;;;;6.06;85.58;101742.66;5028074;28;20121;-70
2021/05/31 03:10:06;;;;;;;9.20;5.32;;;;;;;6.06;85.54;101740.06;5031843;28;20045;-68
2021/05/31 03:12:34;;;;;;;9.43;4.28;;;;;;;6.11;85.65;101737.34;5049162;28;20404;-70
2021/05/31 03:15:03;;;;;;;8.88;5.07;;;;;;;6.09;85.01;101740.00;5050881;28;20064;-67
2021/05/31 03:17:30;;;;;;;8.13;4.72;;;;;;;6.08;85.79;101743.50;5033619;28;20084;-69
2021/05/31 03:19:58;;;;;;;9.50;5.13;;;;;;;6.10;85.38;101740.84;5049145;28;20044;-70
2021/05/31 03:22:25;;;;;;;10.30;5.30;;;;;;;6.15;85.48;101743.34;5046641;28;20053;-70
2021/05/31 03:24:52;;;;;;;8.02;4.65;;;;;;;6.15;85.86;101751.19;5042558;28;20071;-71
2021/05/31 03:27:19;;;;;;;11.00;5.15;;;;;;;6.21;85.33;101751.06;5046891;28;20055;-69
2021/05/31 03:29:46;;;;;;;11.32;5.28;;;;;;;6.21;85.15;101746.69;5045897;28;20053;-69
2021/05/31 03:32:14;;;;;;;11.73;4.57;;;;;;;6.18;85.72;101745.91;5053867;28;20061;-70
2021/05/31 03:34:41;;;;;;;8.80;4.28;;;;;;;6.20;86.26;101754.56;5047601;28;20040;-70
2021/05/31 03:37:08;;;;;;;12.77;5.20;;;;;;;6.18;86.11;101753.75;5033531;28;20048;-68
2021/05/31 03:39:35;;;;;;;10.02;4.55;;;;;;;6.25;85.94;101753.56;5046415;28;20132;-69
2021/05/31 03:42:03;;;;;;;11.32;4.75;;;;;;;6.30;86.08;101750.84;5045569;28;20051;-70
2021/05/31 03:44:30;;;;;;;14.70;5.20;;;;;;;6.41;84.77;101750.59;5032990;28;20533;-68
2021/05/31 03:46:57;;;;;;;8.63;4.10;;;;;;;6.42;84.72;101747.94;5046767;28;20459;-68
2021/05/31 03:49:24;;;;;;;9.02;4.45;;;;;;;6.56;84.98;101742.38;5055108;28;20064;-69
2021/05/31 03:51:51;;;;;;;9.48;4.28;;;;;;;6.66;84.02;101740.41;5039110;28;20056;-68
2021/05/31 03:54:19;;;;;;;8.50;4.43;;;;;;;6.72;83.41;101742.88;5032491;28;20076;-69
2021/05/31 03:56:46;;;;;;;9.50;4.00;;;;;;;6.76;83.35;101747.13;5046403;28;20067;-69
2021/05/31 03:59:13;;;;;;;8.77;4.70;;;;;;;6.81;83.32;101747.88;5037547;28;20260;-69
2021/05/31 04:01:40;;;;;;;9.65;5.30;;;;;;;6.96;82.55;101751.84;5032605;28;20139;-70
2021/05/31 04:04:08;;;;;;;7.88;4.60;;;;;;;6.98;82.12;101750.03;5034197;28;20128;-69
2021/05/31 04:07:00;;;;;;;8.30;4.35;;;;;;;7.08;81.42;101748.91;5046966;28;20070;-68
2021/05/31 04:12:13;;;;;;;9.23;4.90;;;;;;;7.18;81.73;101747.78;5045663;28;20080;-69
2021/05/31 04:14:41;;;;;;;10.43;5.03;;;;;;;7.33;81.33;101751.72;5032417;28;20136;-69
2021/05/31 04:17:08;;;;;;;11.82;4.72;;;;;;;7.49;80.66;101749.56;5025985;28;20491;-69
2021/05/31 04:19:36;;;;;;;10.20;5.55;;;;;;;7.68;79.76;101742.88;5015590;28;20471;-68
2021/05/31 04:22:03;;;;;;;7.85;3.72;;;;;;;7.92;78.68;101741.28;5026470;28;20061;-68
2021/05/31 04:24:30;;;;;;;8.68;5.43;;;;;;;8.49;76.31;101748.28;5022900;28;20411;-70
2021/05/31 04:26:57;;;;;;;5.82;3.67;;;;;;;10.05;71.46;101737.47;5028346;28;20052;-69
2021/05/31 04:29:24;;;;;;;5.78;3.67;;;;;;;11.82;63.12;101731.72;5009507;28;20372;-70
2021/05/31 04:31:51;;;;;;;5.18;3.40;;;;;;;13.51;56.75;101732.13;5034186;28;20132;-70
2021/05/31 04:34:18;;;;;;;8.02;3.95;;;;;;;14.77;51.64;101736.53;5029839;28;20141;-70
2021/05/31 04:36:46;;;;;;;6.20;3.60;;;;;;;15.66;50.91;101729.34;5032646;28;20139;-71
2021/05/31 04:39:13;;;;;;;7.53;3.70;;;;;;;16.19;48.00;101729.53;5029210;28;21334;-70
2021/05/31 04:41:41;;;;;;;10.25;4.13;;;;;;;16.68;46.62;101731.63;5029179;28;20721;-70
2021/05/31 04:44:08;;;;;;;6.82;3.65;;;;;;;18.14;42.62;101733.81;5029533;28;20103;-69
2021/05/31 04:46:35;;;;;;;6.97;3.25;;;;;;;19.24;40.73;101732.69;5032198;28;20128;-71
2021/05/31 04:49:04;;;;;;;7.38;3.55;;;;;;;19.56;39.31;101730.16;5027995;28;20527;-70
2021/05/31 04:51:31;;;;;;;4.63;3.05;;;;;;;21.11;36.99;101734.28;5030121;28;20143;-69
2021/05/31 04:53:59;;;;;;;5.35;3.40;;;;;;;21.63;35.02;101728.94;5034684;28;20196;-70
2021/05/31 04:56:26;;;;;;;8.75;3.70;;;;;;;22.25;33.45;101727.88;5034689;28;20090;-70
2021/05/31 04:58:53;;;;;;;6.50;3.13;;;;;;;22.37;33.09;101737.47;5014520;28;20149;-71
2021/05/31 05:01:21;;;;;;;7.30;3.42;;;;;;;22.45;33.15;101728.72;5017584;28;20061;-72
2021/05/31 05:03:48;;;;;;;7.82;3.90;;;;;;;22.94;32.81;101737.63;5047049;28;20063;-70
2021/05/31 05:06:15;;;;;;;5.32;3.53;;;;;;;23.36;31.19;101742.59;5023459;28;20049;-70
2021/05/31 05:08:44;;;;;;;5.70;3.22;;;;;;;23.13;31.87;101742.09;5031922;28;20519;-70
2021/05/31 05:11:11;;;;;;;6.13;3.50;;;;;;;24.13;29.80;101736.84;5035260;28;20087;-71
2021/05/31 05:13:39;;;;;;;5.88;3.80;;;;;;;23.69;30.03;101739.41;5046130;28;20391;-68
2021/05/31 05:16:06;;;;;;;7.65;3.45;;;;;;;24.01;29.84;101730.03;5042999;28;20210;-69
2021/05/31 05:18:33;;;;;;;7.32;3.33;;;;;;;23.99;29.94;101729.31;5043621;28;20057;-71
2021/05/31 05:21:00;;;;;;;6.60;3.58;;;;;;;24.40;29.58;101733.28;5045050;28;20091;-69
2021/05/31 05:23:28;;;;;;;5.95;3.03;;;;;;;24.19;29.68;101736.28;5027498;28;20136;-68
2021/05/31 05:25:58;;;;;;;5.85;3.70;;;;;;;22.95;31.25;101733.94;5046525;28;20172;-70
2021/05/31 05:28:25;;;;;;;4.03;2.78;;;;;;;25.29;28.29;101732.31;5032669;28;20292;-68
2021/05/31 05:30:52;;;;;;;8.77;4.10;;;;;;;24.70;28.94;101734.75;5047718;28;20053;-69
2021/05/31 05:33:20;;;;;;;6.75;3.30;;;;;;;24.73;28.91;101737.16;5047569;28;20097;-70
2021/05/31 05:35:54;;;;;;;6.63;3.38;;;;;;;26.12;26.98;101724.44;5025830;28;20254;-71
2021/05/31 05:48:45;;;;;;;8.93;3.58;;;;;;;26.95;25.21;101729.72;5036092;28;20049;-69
2021/05/31 05:51:12;;;;;;;7.40;3.30;;;;;;;24.52;28.59;101744.69;5037110;28;20566;-69
2021/05/31 05:53:42;;;;;;;5.93;3.33;;;;;;;26.37;25.68;101740.66;5055812;28;20053;-68
2021/05/31 05:56:12;;;;;;;5.47;3.28;;;;;;;27.77;24.13;101734.94;5052573;28;20061;-68
2021/05/31 05:58:40;;;;;;;10.20;3.72;;;;;;;27.45;24.69;101738.59;5019893;28;20045;-67
2021/05/31 06:01:08;;;;;;;6.18;3.50;;;;;;;27.34;24.36;101744.41;5018671;28;20132;-67
2021/05/31 06:03:36;;;;;;;8.20;3.50;;;;;;;27.74;24.53;101738.03;5049526;28;20696;-67
2021/05/31 06:06:04;;;;;;;9.18;3.22;;;;;;;26.71;25.77;101748.66;5041598;28;20057;-68
2021/05/31 06:08:33;;;;;;;4.88;3.25;;;;;;;27.46;24.47;101742.97;5045820;28;20067;-68
2021/05/31 06:11:00;;;;;;;5.60;3.30;;;;;;;27.92;24.21;101737.75;5046466;28;20770;-67
2021/05/31 06:13:27;;;;;;;8.43;3.90;;;;;;;28.12;23.55;101739.00;5040586;28;20142;-68
2021/05/31 06:15:59;;;;;;;10.77;4.28;;;;;;;27.62;24.70;101742.94;5019973;28;20136;-69
2021/05/31 06:18:28;;;;;;;10.35;3.50;;;;;;;27.58;24.48;101736.19;5054430;28;20697;-68
2021/05/31 06:20:56;;;;;;;8.75;3.65;;;;;;;28.31;23.83;101742.25;5050780;28;20136;-69
2021/05/31 06:23:23;;;;;;;7.63;3.58;;;;;;;27.51;24.76;101740.59;5050571;28;20556;-70
2021/05/31 06:25:51;;;;;;;7.80;3.58;;;;;;;27.96;23.85;101750.78;5016169;28;20045;-69
2021/05/31 06:28:18;;;;;;;6.15;3.78;;;;;;;28.57;23.13;101745.47;5049430;28;20083;-68
2021/05/31 06:30:45;;;;;;;7.72;4.05;;;;;;;25.69;26.29;101747.88;5054369;28;20052;-68
2021/05/31 06:33:13;;;;;;;9.32;3.80;;;;;;;26.92;25.22;101745.44;5052711;28;20055;-69
2021/05/31 06:35:41;;;;;;;8.52;4.20;;;;;;;25.92;26.22;101744.63;5029952;28;20121;-69
2021/05/31 06:38:08;;;;;;;16.80;4.20;;;;;;;27.92;24.17;101744.03;5038520;28;20047;-69
2021/05/31 06:40:35;;;;;;;8.85;4.05;;;;;;;28.70;22.91;101743.00;5031059;28;20071;-67
2021/05/31 06:43:02;;;;;;;9.20;4.18;;;;;;;29.49;21.70;101745.28;5045779;28;20149;-67
2021/05/31 06:45:30;;;;;;;7.65;3.40;;;;;;;29.65;21.42;101739.69;5042415;28;20156;-68
2021/05/31 06:47:59;;;;;;;7.50;3.67;;;;;;;30.06;21.20;101733.69;5026696;28;20060;-68
2021/05/31 06:50:31;;;;;;;8.07;4.53;;;;;;;29.90;22.00;101737.50;5047436;28;20135;-68
2021/05/31 06:53:00;;;;;;;8.43;4.00;;;;;;;30.22;21.42;101727.22;5049960;28;20049;-67
2021/05/31 06:55:29;;;;;;;6.97;3.72;;;;;;;30.32;20.94;101732.34;5041741;28;20709;-67
2021/05/31 06:57:57;;;;;;;8.68;4.22;;;;;;;29.06;22.46;101731.53;5033474;28;20101;-68
2021/05/31 07:00:26;;;;;;;8.38;3.88;;;;;;;29.98;21.50;101729.22;5049832;28;20544;-67
2021/05/31 07:02:54;;;;;;;6.10;3.83;;;;;;;30.21;21.42;101723.66;5027683;28;20557;-67
2021/05/31 07:05:21;;;;;;;8.32;3.60;;;;;;;30.40;20.91;101724.91;5046433;28;20112;-68
2021/05/31 07:07:49;;;;;;;9.73;4.03;;;;;;;30.22;20.90;101729.94;5049077;28;20136;-67
2021/05/31 07:10:27;;;;;;;9.82;4.03;;;;;;;29.25;22.43;101740.97;5029529;28;20139;-69
2021/05/31 07:12:55;;;;;;;7.20;3.97;;;;;;;28.77;22.58;101733.13;5033393;28;20044;-67
2021/05/31 07:15:23;;;;;;;10.43;4.10;;;;;;;28.19;24.33;101722.84;5047926;28;20053;-67
2021/05/31 07:17:50;;;;;;;15.50;3.88;;;;;;;30.16;21.68;101727.97;5049133;28;20051;-67
2021/05/31 07:20:19;;;;;;;9.00;4.22;;;;;;;30.29;21.75;101738.16;5050086;28;20131;-67
2021/05/31 07:22:47;;;;;;;9.93;3.90;;;;;;;30.66;21.19;101731.59;5030549;28;20080;-68
2021/05/31 07:25:17;;;;;;;7.70;3.97;;;;;;;28.13;23.60;101729.84;5045778;28;20068;-67
2021/05/31 07:27:44;;;;;;;11.23;4.40;;;;;;;29.46;22.11;101729.38;5030312;28;20048;-66
2021/05/31 07:30:14;;;;;;;6.82;3.88;;;;;;;29.55;22.54;101724.72;5037462;28;20148;-67
2021/05/31 07:32:41;;;;;;;8.38;3.90;;;;;;;28.19;23.41;101729.16;5043904;28;20144;-67
2021/05/31 07:35:09;;;;;;;6.22;3.78;;;;;;;27.87;24.31;101718.50;5037430;28;20056;-66
2021/05/31 07:37:36;;;;;;;7.55;3.75;;;;;;;29.07;22.98;101726.94;5043312;28;20049;-67
2021/05/31 07:40:07;;;;;;;8.85;4.80;;;;;;;30.98;19.85;101720.19;5027400;28;20098;-65
2021/05/31 07:42:34;;;;;;;5.88;3.58;;;;;;;31.75;19.48;101721.88;5042525;28;20089;-67
2021/05/31 07:45:03;;;;;;;6.90;4.47;;;;;;;32.83;18.57;101724.63;5041609;28;20090;-68
2021/05/31 07:47:30;;;;;;;7.60;4.55;;;;;;;31.58;19.85;101731.44;5043104;28;20108;-66
2021/05/31 07:49:58;;;;;;;9.77;4.22;;;;;;;31.11;19.84;101721.31;5043739;28;20128;-67
2021/05/31 07:52:26;;;;;;;8.38;4.07;;;;;;;30.42;20.90;101720.09;5023166;28;20204;-67
2021/05/31 07:55:46;;;;;;;8.25;4.47;;;;;;;30.64;20.31;101722.81;5041342;28;20108;-67
2021/05/31 07:58:13;;;;;;;11.40;4.25;;;;;;;30.01;21.97;101711.72;5031865;28;20053;-67
2021/05/31 08:00:42;;;;;;;11.73;4.30;;;;;;;29.57;22.19;101717.25;5045038;28;20482;-69
2021/05/31 08:03:09;;;;;;;11.00;4.07;;;;;;;30.61;20.75;101713.16;5024609;28;20057;-65
2021/05/31 08:05:37;;;;;;;12.18;4.20;;;;;;;29.73;21.75;101711.59;5023068;28;20528;-67
2021/05/31 08:08:04;;;;;;;8.50;4.07;;;;;;;30.55;20.93;101710.41;5044227;28;20143;-66
2021/05/31 08:10:32;;;;;;;10.20;4.35;;;;;;;30.21;20.92;101707.34;5035279;28;20137;-66
2021/05/31 08:12:59;;;;;;;8.20;4.20;;;;;;;30.65;20.18;101703.56;5017716;28;20057;-68
2021/05/31 08:15:26;;;;;;;9.52;4.45;;;;;;;30.40;21.00;101708.59;5042539;28;20056;-68
2021/05/31 08:17:54;;;;;;;8.60;3.50;;;;;;;31.37;19.69;101709.78;5044948;28;20126;-67
2021/05/31 08:20:21;;;;;;;15.65;4.32;;;;;;;31.43;20.26;101706.22;5045292;28;20443;-67
2021/05/31 08:22:48;;;;;;;7.10;4.10;;;;;;;29.28;22.15;101708.06;5033550;28;20063;-67
2021/05/31 08:25:15;;;;;;;9.30;4.05;;;;;;;30.49;20.87;101701.16;5024063;28;20136;-68
2021/05/31 08:27:43;;;;;;;8.07;3.45;;;;;;;29.87;20.96;101709.88;5047170;28;20049;-68
2021/05/31 08:30:12;;;;;;;8.68;3.38;;;;;;;27.07;24.09;101708.59;5045776;28;20130;-68
2021/05/31 08:32:39;;;;;;;6.53;3.05;;;;;;;25.36;25.92;101705.59;5029507;28;20139;-67
2021/05/31 08:35:07;;;;;;;10.70;3.30;;;;;;;23.40;29.26;101703.69;5046978;28;20059;-68
2021/05/31 08:37:34;;;;;;;5.85;3.25;;;;;;;22.14;31.09;101707.38;5033910;28;20544;-68
2021/05/31 08:40:04;;;;;;;14.30;3.55;;;;;;;21.93;31.32;101714.63;5020912;28;20057;-67
2021/05/31 08:42:34;;;;;;;11.95;3.50;;;;;;;21.34;32.88;101707.38;5050862;28;20128;-69
2021/05/31 08:45:06;;;;;;;6.90;3.30;;;;;;;21.10;33.29;101708.50;5035034;28;20044;-67
2021/05/31 08:47:39;;;;;;;6.07;3.13;;;;;;;20.60;34.35;101710.16;5047252;28;20049;-68
2021/05/31 09:27:28;;;;;;;5.65;2.25;;;;;;;19.28;34.17;101693.25;5037399;28;20037;-68
2021/05/31 09:30:00;;;;;;;7.47;2.08;;;;;;;19.10;32.96;101687.53;5048205;28;20053;-68
2021/05/31 09:32:29;;;;;;;4.80;2.08;;;;;;;19.15;32.46;101686.19;5008180;28;20132;-69
2021/05/31 09:34:58;;;;;;;5.15;2.25;;;;;;;18.84;32.35;101681.53;5028121;28;20056;-68
2021/05/31 09:37:25;;;;;;;5.03;2.15;;;;;;;18.72;33.37;101688.66;5002092;28;20549;-69
2021/05/31 09:39:59;;;;;;;7.63;2.05;;;;;;;19.02;33.23;101673.94;5047709;28;20717;-68
2021/05/31 09:42:26;;;;;;;7.38;2.38;;;;;;;19.33;34.36;101681.22;5024252;28;21627;-69
2021/05/31 09:45:03;;;;;;;5.80;2.00;;;;;;;18.77;33.88;101674.97;5041980;28;20072;-69
2021/05/31 09:47:33;;;;;;;8.68;2.03;;;;;;;18.88;33.65;101683.84;5018691;28;20121;-68
2021/05/31 09:50:05;;;;;;;3.85;2.15;;;;;;;19.22;32.40;101684.72;5026333;28;20048;-69
2021/05/31 09:52:33;;;;;;;8.32;3.17;;;;;;;19.45;31.83;101677.59;5022181;28;20057;-69
2021/05/31 09:55:03;;;;;;;10.00;3.10;;;;;;;19.46;32.62;101671.28;5017176;28;20057;-68
2021/05/31 09:57:35;;;;;;;5.25;2.17;;;;;;;19.44;32.75;101665.19;5043281;28;20061;-69
2021/05/31 10:00:07;;;;;;;6.43;2.10;;;;;;;18.90;33.43;101667.72;5044253;28;20616;-69
2021/05/31 10:07:59;;;;;;;4.10;1.73;;;;;;;18.77;31.56;101659.81;5023322;28;20135;-69
2021/05/31 10:10:29;;;;;;;7.32;3.33;;;;;;;18.95;31.22;101663.72;5041976;28;20063;-68
2021/05/31 10:12:58;;;;;;;8.25;2.40;;;;;;;19.49;30.44;101654.97;5010913;28;20052;-69
2021/05/31 10:15:27;;;;;;;4.57;1.80;;;;;;;19.65;30.37;101657.31;5029083;28;20147;-69
2021/05/31 10:17:56;;;;;;;4.03;1.83;;;;;;;19.87;29.88;101655.56;5049808;28;20060;-71
2021/05/31 10:20:25;;;;;;;11.55;2.65;;;;;;;19.44;29.69;101653.66;5046975;28;20133;-69
2021/05/31 10:22:53;;;;;;;6.07;1.55;;;;;;;19.32;29.11;101650.16;5032708;28;20099;-69
2021/05/31 10:25:23;;;;;;;3.85;1.92;;;;;;;19.26;29.78;101649.78;5032847;28;20061;-69
2021/05/31 10:27:53;;;;;;;5.32;1.70;;;;;;;19.39;29.02;101650.50;5029300;28;20057;-69
2021/05/31 10:30:21;;;;;;;4.53;1.63;;;;;;;19.15;30.60;101648.81;5028348;28;20132;-69
2021/05/31 10:32:51;;;;;;;5.82;2.17;;;;;;;19.42;30.66;101655.63;5029002;28;20083;-69
2021/05/31 10:35:21;;;;;;;4.93;1.67;;;;;;;19.45;30.75;101650.00;5031903;28;20056;-69
2021/05/31 10:37:56;;;;;;;12.57;1.90;;;;;;;19.43;31.26;101646.63;5032956;28;20464;-70
2021/05/31 10:40:34;;;;;;;12.40;2.00;;;;;;;19.53;30.78;101638.72;5029460;28;20049;-70
2021/05/31 10:43:07;;;;;;;4.43;1.45;;;;;;;19.48;31.26;101633.75;5033362;28;20056;-70
2021/05/31 10:45:35;;;;;;;3.58;1.35;;;;;;;19.61;30.37;101633.66;5029713;28;20135;-69
2021/05/31 10:48:05;;;;;;;5.82;1.90;;;;;;;19.61;30.68;101637.16;5033711;28;20143;-71
2021/05/31 10:50:46;;;;;;;2.95;1.63;;;;;;;19.40;31.32;101636.19;5045973;28;20053;-68
2021/05/31 10:55:55;;;;;;;5.03;1.58;;;;;;;19.21;31.66;101623.47;5050942;28;20143;-70
2021/05/31 10:58:31;;;;;;;8.48;1.90;;;;;;;19.27;32.07;101628.28;5051182;28;20056;-70
2021/05/31 11:01:08;;;;;;;5.18;1.92;;;;;;;19.71;31.73;101618.56;5047786;28;20055;-71
2021/05/31 11:04:01;;;;;;;3.75;1.77;;;;;;;19.92;31.79;101613.28;5016199;28;20107;-70
2021/05/31 11:06:33;;;;;;;5.10;1.80;;;;;;;20.20;31.12;101618.00;5043295;28;20059;-71
2021/05/31 11:09:07;;;;;;;3.47;1.75;;;;;;;19.79;31.54;101609.94;5042877;28;20053;-70
2021/05/31 11:11:48;;;;;;;5.80;1.60;;;;;;;19.78;31.50;101602.88;5049027;28;20056;-70
2021/05/31 11:14:18;;;;;;;5.47;1.95;;;;;;;20.05;31.23;101608.63;5050609;28;20637;-68
2021/05/31 11:16:54;;;;;;;4.53;1.70;;;;;;;19.63;31.55;101612.97;5051522;28;20074;-70
2021/05/31 11:19:36;;;;;;;4.10;1.80;;;;;;;19.70;30.34;101607.03;5018690;28;20479;-69
2021/05/31 11:22:28;;;;;;;3.50;1.23;;;;;;;19.23;28.08;101598.34;5051128;28;20064;-70
2021/05/31 11:24:59;;;;;;;2.45;1.35;;;;;;;19.33;27.29;101602.94;5031954;28;20129;-70
2021/05/31 11:27:32;;;;;;;2.72;2.00;;;;;;;19.38;30.17;101606.09;5026940;28;20535;-69
2021/05/31 11:29:59;;;;;;;2.78;1.63;;;;;;;19.27;31.11;101603.41;5048353;28;20071;-69
2021/05/31 11:32:27;;;;;;;4.72;2.05;;;;;;;19.39;31.47;101594.44;5052330;28;20052;-72
2021/05/31 11:35:02;;;;;;;4.38;1.58;;;;;;;19.26;32.23;101602.56;5050994;28;20052;-70
2021/05/31 11:37:51;;;;;;;4.40;1.38;;;;;;;19.37;30.44;101591.06;5046527;28;20053;-69
2021/05/31 11:40:29;;;;;;;2.25;1.40;;;;;;;19.63;28.90;101589.81;5045228;28;20068;-69
2021/05/31 11:43:01;;;;;;;4.80;1.40;;;;;;;19.45;29.39;101602.81;5046551;28;20049;-70
2021/05/31 11:45:33;;;;;;;4.25;1.60;;;;;;;19.67;29.65;101591.25;5030462;28;20396;-69
2021/05/31 11:48:12;;;;;;;3.53;1.58;;;;;;;19.46;29.56;101583.16;5053057;28;20055;-71
2021/05/31 11:50:41;;;;;;;3.42;1.50;;;;;;;19.65;28.52;101579.84;5013839;28;20077;-72
2021/05/31 11:53:10;;;;;;;3.25;1.20;;;;;;;19.63;27.16;101581.81;5057544;28;20127;-70
2021/05/31 11:55:37;;;;;;;3.25;1.15;;;;;;;19.57;25.51;101573.41;5038918;28;20072;-71
2021/05/31 11:58:06;;;;;;;1.35;1.00;;;;;;;19.37;25.47;101569.69;5032804;28;20078;-71
2021/05/31 12:00:37;;;;;;;2.88;1.27;;;;;;;18.91;26.47;101568.00;5013612;28;20051;-72
2021/05/31 12:03:05;;;;;;;3.88;1.25;;;;;;;19.29;27.59;101567.63;5049740;28;20045;-70
2021/05/31 12:05:35;;;;;;;2.78;1.23;;;;;;;19.29;28.10;101569.47;5033557;28;20051;-70
2021/05/31 12:08:05;;;;;;;6.50;1.75;;;;;;;19.38;28.70;101568.72;5052353;28;20168;-70
2021/05/31 12:10:32;;;;;;;4.25;1.50;;;;;;;19.56;28.33;101564.53;5048458;28;20059;-71
2021/05/31 12:12:59;;;;;;;3.53;1.40;;;;;;;19.58;28.88;101553.72;5030345;28;20049;-70
2021/05/31 12:15:26;;;;;;;3.03;1.85;;;;;;;19.52;27.98;101556.91;5049017;28;20497;-70
2021/05/31 12:17:54;;;;;;;3.92;1.67;;;;;;;19.57;26.70;101560.88;5055944;28;20060;-71
2021/05/31 12:20:30;;;;;;;2.78;1.50;;;;;;;19.66;26.93;101556.66;5026847;28;20448;-69
2021/05/31 12:22:57;;;;;;;2.53;1.08;;;;;;;19.53;26.35;101548.75;5043460;28;20565;-70
2021/05/31 12:25:24;;;;;;;1.85;1.38;;;;;;;19.48;26.88;101549.13;5045675;28;20049;-69
2021/05/31 12:27:52;;;;;;;5.40;1.20;;;;;;;19.71;27.53;101547.28;5045095;28;20049;-70
2021/05/31 12:30:19;;;;;;;3.90;1.38;;;;;;;19.65;27.89;101545.13;5044505;28;20070;-69
2021/05/31 12:32:46;;;;;;;5.93;1.63;;;;;;;19.55;28.32;101541.50;5028556;28;20104;-70
2021/05/31 12:35:14;;;;;;;4.90;1.73;;;;;;;19.40;28.34;101540.91;5050021;28;20053;-72
2021/05/31 12:37:47;;;;;;;3.95;1.92;;;;;;;19.59;27.88;101536.75;5049123;28;20562;-84
2021/05/31 12:40:18;;;;;;;3.55;1.30;;;;;;;19.65;27.82;101534.44;5013519;28;20048;-70
2021/05/31 12:42:48;;;;;;;3.85;1.88;;;;;;;19.86;28.09;101536.31;5011908;28;20128;-71
2021/05/31 12:45:16;;;;;;;4.70;1.67;;;;;;;20.10;28.39;101534.22;5037628;28;20052;-71
2021/05/31 12:47:46;;;;;;;4.43;1.40;;;;;;;20.08;27.69;101528.16;5045402;28;20511;-73
2021/05/31 12:50:29;;;;;;;4.32;1.50;;;;;;;20.23;27.94;101531.38;5027811;28;20093;-70
2021/05/31 12:53:03;;;;;;;5.65;1.85;;;;;;;20.14;27.44;101524.97;5047187;28;20510;-69